createdAt,value
2022-12-03T00:02:13.002Z,36.03
2022-12-03T00:04:39.665Z,38.67
2022-12-03T00:07:06.278Z,32.03
2022-12-03T00:09:33.010Z,40.60
2022-12-03T00:12:06.395Z,42.00
2022-12-03T00:14:33.201Z,40.53
2022-12-03T00:17:00.568Z,41.47
2022-12-03T00:19:27.191Z,47.40
2022-12-03T00:21:53.840Z,45.33
2022-12-03T00:24:20.443Z,35.97
2022-12-03T00:26:46.995Z,38.42
2022-12-03T00:29:13.670Z,36.75
2022-12-03T00:31:41.982Z,38.42
2022-12-03T00:34:08.604Z,41.50
2022-12-03T00:36:35.220Z,38.10
2022-12-03T00:39:01.885Z,36.60
2022-12-03T00:41:28.527Z,40.67
2022-12-03T00:43:57.933Z,40.70
2022-12-03T00:46:27.968Z,40.17
2022-12-03T00:48:54.566Z,36.85
2022-12-03T00:51:21.236Z,36.25
2022-12-03T00:53:47.922Z,43.60
2022-12-03T00:56:14.527Z,39.30
2022-12-03T00:58:41.152Z,45.60
2022-12-03T01:01:07.744Z,38.72
2022-12-03T01:03:34.463Z,37.83
2022-12-03T01:06:01.183Z,42.83
2022-12-03T01:08:27.802Z,39.72
2022-12-03T01:10:54.390Z,42.55
2022-12-03T01:13:21.067Z,43.42
2022-12-03T01:15:47.865Z,42.65
2022-12-03T01:18:14.580Z,35.42
2022-12-03T01:20:41.257Z,38.50
2022-12-03T01:23:07.942Z,38.60
2022-12-03T01:25:34.549Z,35.30
2022-12-03T01:28:01.351Z,46.42
2022-12-03T01:30:28.018Z,45.25
2022-12-03T01:32:54.879Z,43.20
2022-12-03T01:35:21.567Z,40.95
2022-12-03T01:37:48.414Z,37.97
2022-12-03T01:40:19.897Z,50.85
2022-12-03T01:42:46.572Z,48.00
2022-12-03T01:45:22.294Z,41.35
2022-12-03T01:47:49.075Z,42.65
2022-12-03T01:50:31.755Z,40.53
2022-12-03T01:53:01.507Z,45.15
2022-12-03T01:55:28.497Z,40.65
2022-12-03T01:57:58.898Z,47.63
2022-12-03T02:00:29.603Z,47.78
2022-12-03T02:03:01.618Z,42.17
2022-12-03T02:05:33.145Z,50.35
2022-12-03T02:08:00.366Z,42.22
2022-12-03T02:10:32.620Z,48.10
2022-12-03T02:13:10.429Z,46.20
2022-12-03T02:15:39.758Z,48.47
2022-12-03T02:18:08.787Z,45.35
2022-12-03T02:20:43.660Z,44.95
2022-12-03T02:23:47.776Z,41.83
2022-12-03T02:26:14.482Z,46.90
2022-12-03T02:28:41.162Z,49.53
2022-12-03T02:31:08.165Z,48.67
2022-12-03T02:33:36.015Z,53.13
2022-12-03T02:36:04.098Z,49.25
2022-12-03T02:38:32.446Z,54.53
2022-12-03T02:41:04.785Z,50.03
2022-12-03T02:43:31.887Z,49.70
2022-12-03T02:46:01.783Z,52.97
2022-12-03T02:48:40.045Z,51.67
2022-12-03T02:51:10.188Z,47.70
2022-12-03T02:53:42.515Z,52.30
2022-12-03T02:56:11.875Z,57.08
2022-12-03T02:58:40.060Z,58.70
2022-12-03T03:01:08.409Z,45.42
2022-12-03T03:03:37.518Z,47.70
2022-12-03T03:06:06.429Z,48.65
2022-12-03T03:08:33.655Z,48.85
2022-12-03T03:11:02.182Z,54.20
2022-12-03T03:13:31.098Z,39.70
2022-12-03T03:15:58.206Z,45.50
2022-12-03T03:18:25.172Z,55.85
2022-12-03T03:20:51.774Z,60.97
2022-12-03T03:23:23.838Z,51.53
2022-12-03T03:25:58.586Z,53.65
2022-12-03T03:28:26.363Z,56.30
2022-12-03T03:30:53.714Z,41.33
2022-12-03T03:33:20.688Z,55.03
2022-12-03T03:35:49.065Z,60.25
2022-12-03T03:38:18.973Z,55.10
2022-12-03T03:40:46.901Z,55.45
2022-12-03T03:43:14.097Z,31.52
2022-12-03T03:45:41.494Z,45.80
2022-12-03T03:48:08.251Z,54.17
2022-12-03T03:50:35.306Z,56.97
2022-12-03T03:53:03.135Z,52.83
2022-12-03T03:55:30.666Z,46.67
2022-12-03T03:57:57.421Z,60.05
2022-12-03T04:00:24.221Z,54.28
2022-12-03T04:02:52.594Z,50.20
2022-12-03T04:05:21.367Z,54.15
2022-12-03T04:07:48.243Z,49.28
2022-12-03T04:10:38.594Z,46.65
2022-12-03T04:13:05.851Z,57.88
2022-12-03T04:15:32.650Z,56.90
2022-12-03T04:18:17.886Z,50.13
2022-12-03T04:20:44.510Z,50.10
2022-12-03T04:23:11.174Z,66.57
2022-12-03T04:25:56.842Z,49.47
2022-12-03T04:28:42.326Z,49.20
2022-12-03T04:31:27.742Z,63.28
2022-12-03T04:34:12.718Z,54.63
2022-12-03T04:39:05.970Z,59.45
2022-12-03T04:41:32.558Z,53.42
2022-12-03T04:44:17.974Z,58.90
2022-12-03T04:46:44.633Z,57.28
2022-12-03T04:49:11.270Z,58.15
2022-12-03T04:51:37.972Z,57.80
2022-12-03T04:54:04.623Z,44.20
2022-12-03T04:56:31.210Z,52.97
2022-12-03T04:58:57.822Z,59.63
2022-12-03T05:01:24.526Z,49.03
2022-12-03T05:03:51.326Z,59.08
2022-12-03T05:06:17.899Z,55.75
2022-12-03T05:08:44.492Z,63.30
2022-12-03T05:11:11.107Z,58.97
2022-12-03T05:13:37.721Z,42.90
2022-12-03T05:16:04.516Z,51.88
2022-12-03T05:18:31.138Z,63.28
2022-12-03T05:20:57.778Z,53.78
2022-12-03T05:23:24.400Z,54.42
2022-12-03T05:25:51.127Z,48.55
2022-12-03T05:28:17.839Z,55.45
2022-12-03T05:30:44.523Z,63.75
2022-12-03T05:33:11.245Z,54.85
2022-12-03T05:35:37.860Z,55.78
2022-12-03T05:38:04.451Z,51.65
2022-12-03T05:40:31.082Z,43.05
2022-12-03T05:42:57.859Z,51.35
2022-12-03T05:45:27.071Z,31.10
2022-12-03T05:47:55.213Z,53.28
2022-12-03T05:50:24.727Z,53.30
2022-12-03T05:52:51.472Z,55.25
2022-12-03T05:55:18.877Z,58.15
2022-12-03T05:57:45.889Z,49.17
2022-12-03T06:00:15.576Z,53.15
2022-12-03T06:02:42.328Z,54.33
2022-12-03T06:05:10.334Z,49.15
2022-12-03T06:07:43.685Z,46.55
2022-12-03T06:10:22.602Z,56.83
2022-12-03T06:13:02.883Z,52.55
2022-12-03T06:15:29.700Z,53.13
2022-12-03T06:17:56.294Z,45.35
2022-12-03T06:20:22.917Z,52.25
2022-12-03T06:22:49.584Z,45.17
2022-12-03T06:25:16.421Z,43.80
2022-12-03T06:27:43.764Z,53.75
2022-12-03T06:30:12.411Z,50.75
2022-12-03T06:32:39.170Z,55.40
2022-12-03T06:35:06.103Z,42.63
2022-12-03T06:37:32.697Z,49.15
2022-12-03T06:39:59.262Z,49.97
2022-12-03T06:42:25.822Z,40.40
2022-12-03T06:44:52.866Z,49.47
2022-12-03T06:47:19.981Z,32.83
2022-12-03T06:49:46.671Z,41.88
2022-12-03T06:52:13.322Z,39.90
2022-12-03T06:54:39.965Z,45.45
2022-12-03T06:57:06.620Z,44.53
2022-12-03T06:59:34.190Z,35.38
2022-12-03T07:02:01.143Z,42.70
2022-12-03T07:04:27.998Z,40.00
2022-12-03T07:06:54.677Z,44.67
2022-12-03T07:09:21.296Z,39.03
2022-12-03T07:11:47.858Z,37.15
2022-12-03T07:14:14.630Z,43.72
2022-12-03T07:16:43.427Z,44.15
2022-12-03T07:19:10.728Z,48.38
2022-12-03T07:21:37.429Z,38.00
2022-12-03T07:24:04.236Z,41.28
2022-12-03T07:26:30.935Z,44.03
2022-12-03T07:28:57.886Z,44.03
2022-12-03T07:31:24.723Z,41.65
2022-12-03T07:33:51.528Z,49.10
2022-12-03T07:36:18.180Z,42.28
2022-12-03T07:38:45.044Z,39.97
2022-12-03T07:41:11.744Z,34.78
2022-12-03T07:43:38.439Z,53.20
2022-12-03T07:46:05.274Z,45.40
2022-12-03T07:48:31.870Z,45.55
2022-12-03T07:50:58.519Z,49.33
2022-12-03T07:53:25.127Z,49.92
2022-12-03T07:55:51.770Z,42.88
2022-12-03T07:58:18.425Z,53.53
2022-12-03T08:00:45.119Z,39.28
2022-12-03T08:03:11.757Z,41.92
2022-12-03T08:05:38.518Z,46.47
2022-12-03T08:08:05.463Z,53.95
2022-12-03T08:10:32.423Z,51.67
2022-12-03T08:13:00.112Z,50.92
2022-12-03T08:15:32.375Z,49.45
2022-12-03T08:18:18.787Z,52.72
2022-12-03T08:20:48.327Z,43.00
2022-12-03T08:23:20.739Z,57.10
2022-12-03T08:25:48.302Z,57.03
2022-12-03T08:28:24.071Z,57.35
2022-12-03T08:31:12.371Z,47.22
2022-12-03T08:33:40.089Z,57.58
2022-12-03T08:36:14.550Z,60.05
2022-12-03T08:38:41.379Z,45.78
2022-12-03T08:41:37.601Z,44.10
2022-12-03T08:44:32.413Z,58.17
2022-12-03T08:47:10.161Z,49.17
2022-12-03T08:49:37.287Z,50.67
2022-12-03T08:52:13.248Z,52.47
2022-12-03T08:54:39.876Z,46.38
2022-12-03T08:57:27.238Z,63.25
2022-12-03T09:00:14.208Z,58.28
2022-12-03T09:02:49.357Z,51.33
2022-12-03T09:05:20.535Z,54.42
2022-12-03T09:07:47.322Z,54.88
2022-12-03T09:10:13.989Z,32.85
2022-12-03T09:12:40.646Z,46.72
2022-12-03T09:15:07.881Z,50.42
2022-12-03T09:17:34.518Z,55.38
2022-12-03T09:20:01.267Z,55.40
2022-12-03T09:22:27.852Z,49.92
2022-12-03T09:24:54.814Z,53.40
2022-12-03T09:27:22.687Z,55.22
2022-12-03T09:29:50.361Z,52.65
2022-12-03T09:32:18.723Z,46.08
2022-12-03T09:34:45.902Z,50.50
2022-12-03T09:37:12.586Z,40.60
2022-12-03T09:39:39.171Z,48.50
2022-12-03T09:42:05.912Z,50.38
2022-12-03T09:44:34.294Z,55.72
2022-12-03T09:47:02.461Z,40.03
2022-12-03T09:49:31.928Z,46.03
2022-12-03T09:52:01.989Z,54.25
2022-12-03T09:54:30.244Z,57.45
2022-12-03T09:56:59.742Z,56.13
2022-12-03T09:59:31.420Z,28.77
2022-12-03T10:01:58.446Z,54.05
2022-12-03T10:04:26.515Z,45.45
2022-12-03T10:06:53.804Z,56.25
2022-12-03T10:09:25.032Z,59.47
2022-12-03T10:11:51.828Z,66.32
2022-12-03T10:14:19.968Z,49.33
2022-12-03T10:16:47.126Z,58.33
2022-12-03T10:19:23.186Z,47.97
2022-12-03T10:21:50.161Z,57.20
2022-12-03T10:24:29.347Z,51.45
2022-12-03T10:26:59.433Z,50.55
2022-12-03T10:29:34.056Z,53.75
2022-12-03T10:32:10.140Z,66.88
2022-12-03T10:34:39.203Z,66.97
2022-12-03T10:37:20.719Z,49.40
2022-12-03T10:39:56.337Z,70.00
2022-12-03T10:42:27.252Z,67.60
2022-12-03T10:45:18.152Z,56.85
2022-12-03T10:48:13.942Z,71.78
2022-12-03T10:50:52.686Z,74.63
2022-12-03T10:53:21.418Z,52.05
2022-12-03T10:55:51.869Z,75.13
2022-12-03T10:58:22.773Z,70.28
2022-12-03T11:00:51.815Z,46.83
2022-12-03T11:03:22.330Z,29.42
2022-12-03T11:05:49.878Z,53.67
2022-12-03T11:08:25.312Z,70.75
2022-12-03T11:11:07.914Z,65.88
2022-12-03T11:13:34.429Z,75.28
2022-12-03T11:16:06.256Z,72.32
2022-12-03T11:18:36.039Z,79.13
2022-12-03T11:21:02.655Z,77.15
2022-12-03T11:23:49.574Z,73.47
2022-12-03T11:26:19.525Z,62.30
2022-12-03T11:28:46.534Z,74.75
2022-12-03T11:31:41.272Z,66.65
2022-12-03T11:34:20.454Z,66.30
2022-12-03T11:37:11.864Z,73.13
2022-12-03T11:39:50.965Z,62.88
2022-12-03T11:42:25.321Z,54.10
2022-12-03T11:45:12.382Z,61.22
2022-12-03T11:47:44.853Z,70.47
2022-12-03T11:50:22.282Z,65.13
2022-12-03T11:53:00.570Z,60.47
2022-12-03T11:55:37.521Z,63.60
2022-12-03T11:58:12.873Z,58.15
2022-12-03T12:00:39.504Z,69.13
2022-12-03T12:03:28.296Z,44.33
2022-12-03T12:06:12.114Z,32.50
2022-12-03T12:08:52.143Z,48.33
2022-12-03T12:11:28.083Z,46.70
2022-12-03T12:13:59.784Z,54.80
2022-12-03T12:16:55.831Z,62.80
2022-12-03T12:19:33.191Z,54.30
2022-12-03T12:22:24.983Z,56.05
2022-12-03T12:24:56.981Z,52.88
2022-12-03T12:27:36.345Z,43.17
2022-12-03T12:30:15.653Z,61.55
2022-12-03T12:32:50.009Z,72.68
2022-12-03T12:35:21.155Z,67.70
2022-12-03T12:38:00.694Z,62.28
2022-12-03T12:40:30.312Z,60.40
2022-12-03T12:42:58.555Z,51.25
2022-12-03T12:45:28.805Z,60.15
2022-12-03T12:48:14.391Z,60.80
2022-12-03T12:50:43.870Z,63.58
2022-12-03T12:53:27.127Z,44.00
2022-12-03T12:55:59.555Z,54.17
2022-12-03T12:58:29.965Z,58.03
2022-12-03T13:00:59.509Z,60.30
2022-12-03T13:03:32.543Z,64.47
2022-12-03T13:05:59.397Z,68.00
2022-12-03T13:08:32.199Z,49.42
2022-12-03T13:11:00.825Z,61.38
2022-12-03T13:13:44.023Z,62.65
2022-12-03T13:16:30.852Z,56.42
2022-12-03T13:18:59.683Z,51.55
2022-12-03T13:21:43.803Z,60.83
2022-12-03T13:24:29.174Z,53.87
2022-12-03T13:26:57.195Z,73.45
2022-12-03T13:29:25.594Z,65.82
2022-12-03T13:31:58.851Z,42.95
2022-12-03T13:34:33.028Z,48.85
2022-12-03T13:37:00.941Z,59.78
2022-12-03T13:39:37.779Z,61.00
2022-12-03T13:42:38.933Z,62.85
2022-12-03T13:45:17.657Z,58.17
2022-12-03T13:47:45.533Z,55.92
2022-12-03T13:50:21.106Z,48.78
2022-12-03T13:52:48.286Z,55.20
2022-12-03T13:55:28.346Z,43.65
2022-12-03T13:57:55.295Z,52.42
2022-12-03T14:00:22.583Z,46.80
2022-12-03T14:02:49.445Z,48.05
2022-12-03T14:05:16.212Z,54.47
2022-12-03T14:07:43.106Z,57.47
2022-12-03T14:10:11.836Z,63.00
2022-12-03T14:12:38.664Z,63.10
2022-12-03T14:15:06.355Z,55.38
2022-12-03T14:17:33.064Z,57.90
2022-12-03T14:20:01.486Z,46.92
2022-12-03T14:22:28.731Z,54.60
2022-12-03T14:24:55.586Z,50.50
2022-12-03T14:27:23.106Z,58.22
2022-12-03T14:29:49.875Z,58.53
2022-12-03T14:32:17.045Z,53.65
2022-12-03T14:34:43.692Z,49.67
2022-12-03T14:37:10.449Z,66.40
2022-12-03T14:39:37.216Z,54.58
2022-12-03T14:42:17.014Z,52.40
2022-12-03T14:44:51.301Z,47.33
2022-12-03T14:47:20.495Z,59.33
2022-12-03T14:49:47.369Z,46.55
2022-12-03T14:52:14.148Z,38.67
2022-12-03T14:54:44.681Z,47.45
2022-12-03T14:57:13.017Z,36.80
2022-12-03T14:59:43.614Z,45.22
2022-12-03T15:02:11.371Z,49.50
2022-12-03T15:04:39.473Z,53.80
2022-12-03T15:07:06.272Z,35.30
2022-12-03T15:09:33.215Z,55.97
2022-12-03T15:12:00.146Z,48.90
2022-12-03T15:14:27.192Z,45.17
2022-12-03T15:16:53.978Z,46.70
2022-12-03T15:19:20.653Z,40.17
2022-12-03T15:21:49.718Z,39.22
2022-12-03T15:24:16.978Z,58.10
2022-12-03T15:26:43.623Z,47.80
2022-12-03T15:29:10.468Z,51.15
2022-12-03T15:31:37.167Z,54.88
2022-12-03T15:34:03.990Z,54.92
2022-12-03T15:36:30.643Z,45.42
2022-12-03T15:38:57.614Z,47.10
2022-12-03T15:41:28.853Z,52.92
2022-12-03T15:43:57.601Z,66.22
2022-12-03T15:46:24.886Z,54.55
2022-12-03T15:48:51.976Z,46.10
2022-12-03T15:51:18.626Z,57.53
2022-12-03T15:53:45.455Z,55.00
2022-12-03T15:56:12.379Z,57.35
2022-12-03T15:58:40.191Z,59.63
2022-12-03T16:01:08.153Z,46.30
2022-12-03T16:03:35.560Z,62.33
2022-12-03T16:06:02.276Z,51.95
2022-12-03T16:08:28.946Z,51.33
2022-12-03T16:10:55.625Z,59.95
2022-12-03T16:13:22.319Z,61.08
2022-12-03T16:15:49.076Z,70.05
2022-12-03T16:18:15.699Z,67.05
2022-12-03T16:20:42.457Z,70.03
2022-12-03T16:23:12.056Z,73.65
2022-12-03T16:25:38.638Z,65.95
2022-12-03T16:28:05.242Z,82.63
2022-12-03T16:30:31.938Z,68.53
2022-12-03T16:32:58.530Z,64.43
2022-12-03T16:35:25.149Z,69.03
2022-12-03T16:37:51.716Z,53.13
2022-12-03T16:40:18.442Z,60.67
2022-12-03T16:42:45.175Z,80.72
2022-12-03T16:45:23.015Z,59.78
2022-12-03T16:47:50.186Z,73.70
2022-12-03T16:50:24.425Z,65.18
2022-12-03T16:52:55.684Z,58.08
2022-12-03T16:55:22.456Z,62.58
2022-12-03T16:57:49.295Z,79.82
2022-12-03T17:00:16.695Z,72.35
2022-12-03T17:02:43.491Z,74.70
2022-12-03T17:05:10.314Z,75.72
2022-12-03T17:07:36.991Z,72.38
2022-12-03T17:10:04.707Z,73.18
2022-12-03T17:13:00.774Z,67.88
2022-12-03T17:15:21.036Z,65.18
2022-12-03T17:17:47.778Z,75.93
2022-12-03T17:20:15.042Z,83.90
2022-12-03T17:22:41.965Z,82.53
2022-12-03T17:25:10.029Z,65.45
2022-12-03T17:27:42.022Z,76.47
2022-12-03T17:30:12.347Z,79.35
2022-12-03T17:32:38.994Z,76.93
2022-12-03T17:35:06.008Z,62.67
2022-12-03T17:37:32.603Z,67.97
2022-12-03T17:39:59.952Z,53.92
2022-12-03T17:42:26.679Z,68.22
2022-12-03T17:44:53.318Z,71.70
2022-12-03T17:47:20.004Z,70.22
2022-12-03T17:49:46.667Z,66.70
2022-12-03T17:52:13.280Z,69.45
2022-12-03T17:55:08.613Z,71.70
2022-12-03T17:57:26.714Z,67.10
2022-12-03T17:59:53.610Z,67.57
2022-12-03T18:02:20.460Z,67.00
2022-12-03T18:04:47.135Z,61.80
2022-12-03T18:07:14.182Z,58.55
2022-12-03T18:09:41.099Z,66.80
2022-12-03T18:12:07.928Z,58.65
2022-12-03T18:14:34.635Z,68.07
2022-12-03T18:17:01.255Z,65.10
2022-12-03T18:19:27.882Z,60.50
2022-12-03T18:21:55.164Z,59.40
2022-12-03T18:24:22.500Z,57.30
2022-12-03T18:26:49.914Z,73.38
2022-12-03T18:29:16.539Z,61.85
2022-12-03T18:31:43.153Z,80.18
2022-12-03T18:34:09.806Z,43.47
2022-12-03T18:36:36.711Z,60.83
2022-12-03T18:39:05.882Z,62.00
2022-12-03T18:41:33.459Z,74.45
2022-12-03T18:44:03.209Z,68.55
2022-12-03T18:46:53.390Z,52.60
2022-12-03T18:49:16.634Z,59.53
2022-12-03T18:51:43.470Z,72.70
2022-12-03T18:54:12.590Z,77.70
2022-12-03T18:56:42.861Z,74.47
2022-12-03T18:59:10.435Z,72.65
2022-12-03T19:01:37.268Z,68.90
2022-12-03T19:04:04.375Z,69.50
2022-12-03T19:06:31.316Z,74.90
2022-12-03T19:08:58.127Z,74.45
2022-12-03T19:11:25.333Z,67.45
2022-12-03T19:13:52.254Z,73.25
2022-12-03T19:16:19.264Z,76.72
2022-12-03T19:18:47.065Z,73.65
2022-12-03T19:21:16.487Z,77.05
2022-12-03T19:24:04.180Z,66.70
2022-12-03T19:26:30.464Z,73.85
2022-12-03T19:28:57.299Z,68.30
2022-12-03T19:31:24.060Z,53.17
2022-12-03T19:33:51.704Z,68.05
2022-12-03T19:36:32.119Z,74.47
2022-12-03T19:38:59.881Z,71.68
2022-12-03T19:41:30.388Z,71.55
2022-12-03T19:43:57.576Z,86.18
2022-12-03T19:46:25.971Z,71.93
2022-12-03T19:48:54.241Z,84.15
2022-12-03T19:51:34.027Z,74.95
2022-12-03T19:54:02.799Z,82.75
2022-12-03T19:56:30.569Z,58.15
2022-12-03T19:58:57.653Z,56.35
2022-12-03T20:01:27.255Z,80.30
2022-12-03T20:03:55.770Z,61.67
2022-12-03T20:06:25.992Z,73.82
2022-12-03T20:08:57.877Z,52.65
2022-12-03T20:11:29.903Z,85.40
2022-12-03T20:13:59.708Z,93.65
2022-12-03T20:16:27.541Z,87.90
2022-12-03T20:19:03.088Z,82.05
2022-12-03T20:21:32.751Z,74.13
2022-12-03T20:23:59.743Z,67.70
2022-12-03T20:26:27.163Z,89.22
2022-12-03T20:28:55.027Z,76.53
2022-12-03T20:31:23.610Z,87.72
2022-12-03T20:33:52.348Z,94.13
2022-12-03T20:36:21.156Z,76.05
2022-12-03T20:38:48.192Z,91.00
2022-12-03T20:41:18.629Z,69.90
2022-12-03T20:43:45.752Z,101.13
2022-12-03T20:46:20.273Z,89.68
2022-12-03T20:51:19.267Z,82.15
2022-12-03T20:53:46.155Z,91.07
2022-12-03T20:56:21.401Z,90.28
2022-12-03T20:58:49.328Z,86.60
2022-12-03T21:01:19.095Z,81.75
2022-12-03T21:03:47.271Z,96.38
2022-12-03T21:06:15.423Z,97.88
2022-12-03T21:08:42.922Z,89.10
2022-12-03T21:11:12.131Z,59.83
2022-12-03T21:13:41.531Z,87.63
2022-12-03T21:16:10.769Z,54.72
2022-12-03T21:18:38.568Z,99.55
2022-12-03T21:21:06.471Z,95.07
2022-12-03T21:23:34.326Z,96.05
2022-12-03T21:26:08.371Z,102.43
2022-12-03T21:28:35.362Z,92.65
2022-12-03T21:31:04.629Z,88.95
2022-12-03T21:33:31.748Z,59.20
2022-12-03T21:35:59.682Z,55.25
2022-12-03T21:38:27.493Z,81.57
2022-12-03T21:40:54.886Z,96.50
2022-12-03T21:43:21.783Z,71.85
2022-12-03T21:45:48.718Z,95.72
2022-12-03T21:48:16.560Z,92.80
2022-12-03T21:50:43.350Z,85.15
2022-12-03T21:53:10.362Z,88.00
2022-12-03T21:55:41.113Z,88.28
2022-12-03T21:58:08.767Z,91.07
2022-12-03T22:00:36.099Z,64.60
2022-12-03T22:03:03.085Z,49.33
2022-12-03T22:05:29.810Z,55.88
2022-12-03T22:07:56.571Z,75.03
2022-12-03T22:10:23.508Z,90.65
2022-12-03T22:12:50.450Z,91.93
2022-12-03T22:15:19.400Z,92.28
2022-12-03T22:17:47.138Z,93.75
2022-12-03T22:20:14.807Z,58.40
2022-12-03T22:22:41.597Z,89.03
2022-12-03T22:25:08.601Z,86.00
2022-12-03T22:27:35.421Z,95.25
2022-12-03T22:30:03.582Z,74.25
2022-12-03T22:32:30.372Z,85.35
2022-12-03T22:34:57.138Z,95.90
2022-12-03T22:37:23.903Z,79.65
2022-12-03T22:39:50.559Z,79.97
2022-12-03T22:42:17.168Z,86.22
2022-12-03T22:44:43.834Z,96.90
2022-12-03T22:47:10.431Z,79.47
2022-12-03T22:49:37.083Z,83.97
2022-12-03T22:52:04.050Z,91.78
2022-12-03T22:54:30.711Z,95.70
2022-12-03T22:56:57.354Z,86.95
2022-12-03T22:59:24.162Z,87.45
2022-12-03T23:01:50.821Z,89.97
2022-12-03T23:04:17.481Z,91.18
2022-12-03T23:06:44.581Z,97.00
2022-12-03T23:09:11.296Z,87.82
2022-12-03T23:11:37.956Z,83.97
2022-12-03T23:14:04.709Z,88.47
2022-12-03T23:16:33.049Z,89.72
2022-12-03T23:19:01.061Z,68.00
2022-12-03T23:21:31.032Z,77.50
2022-12-03T23:24:03.295Z,89.55
2022-12-03T23:26:30.086Z,86.30
2022-12-03T23:28:56.834Z,75.47
2022-12-03T23:31:31.235Z,66.10
2022-12-03T23:33:58.941Z,73.70
2022-12-03T23:36:28.347Z,97.43
2022-12-03T23:38:55.385Z,86.93
2022-12-03T23:41:23.519Z,82.88
2022-12-03T23:43:50.178Z,85.28
2022-12-03T23:46:20.961Z,89.18
2022-12-03T23:48:48.175Z,84.38
2022-12-03T23:51:19.757Z,77.57
2022-12-03T23:53:46.890Z,65.97
2022-12-03T23:56:19.305Z,71.15
2022-12-03T23:58:46.549Z,80.75
